sensor_id;sensor_type;location;lat;lon;timestamp;pressure;altitude;pressure_sealevel;temperature;humidity
14204;BME280;7185;51.854;6.622;2022-10-16T00:00:43;100772.09;;;14.18;100.00
14204;BME280;7185;51.854;6.622;2022-10-16T00:03:14;100768.06;;;14.06;100.00
14204;BME280;7185;51.854;6.622;2022-10-16T00:05:46;100769.66;;;14.12;100.00
14204;BME280;7185;51.854;6.622;2022-10-16T00:08:17;100773.16;;;14.12;100.00
14204;BME280;7185;51.854;6.622;2022-10-16T00:10:49;100773.00;;;14.17;100.00
14204;BME280;7185;51.854;6.622;2022-10-16T00:13:21;100769.53;;;14.16;100.00
14204;BME280;7185;51.854;6.622;2022-10-16T00:15:56;100765.03;;;14.20;100.00
14204;BME280;7185;51.854;6.622;2022-10-16T00:18:28;100770.38;;;14.17;100.00
14204;BME280;7185;51.854;6.622;2022-10-16T00:21:05;100777.47;;;14.15;100.00
14204;BME280;7185;51.854;6.622;2022-10-16T00:23:37;100780.84;;;14.20;100.00
14204;BME280;7185;51.854;6.622;2022-10-16T00:26:11;100779.09;;;14.19;100.00
14204;BME280;7185;51.854;6.622;2022-10-16T00:28:45;100780.91;;;14.17;100.00
14204;BME280;7185;51.854;6.622;2022-10-16T00:31:19;100777.47;;;14.15;100.00
14204;BME280;7185;51.854;6.622;2022-10-16T00:33:51;100777.47;;;14.15;100.00
14204;BME280;7185;51.854;6.622;2022-10-16T00:36:25;100780.91;;;14.17;100.00
14204;BME280;7185;51.854;6.622;2022-10-16T00:38:57;100778.53;;;14.09;100.00
14204;BME280;7185;51.854;6.622;2022-10-16T00:41:31;100774.03;;;14.13;100.00
14204;BME280;7185;51.854;6.622;2022-10-16T00:44:40;100768.84;;;14.10;100.00
14204;BME280;7185;51.854;6.622;2022-10-16T00:46:56;100775.06;;;14.07;100.00
14204;BME280;7185;51.854;6.622;2022-10-16T00:49:29;100768.91;;;14.07;100.00
14204;BME280;7185;51.854;6.622;2022-10-16T00:52:01;100773.19;;;14.11;100.00
14204;BME280;7185;51.854;6.622;2022-10-16T00:54:33;100777.66;;;14.09;100.00
14204;BME280;7185;51.854;6.622;2022-10-16T00:57:06;100776.78;;;14.08;100.00
14204;BME280;7185;51.854;6.622;2022-10-16T00:59:39;100777.00;;;14.00;100.00
14204;BME280;7185;51.854;6.622;2022-10-16T01:02:14;100772.63;;;14.01;100.00
14204;BME280;7185;51.854;6.622;2022-10-16T01:04:48;100775.28;;;13.99;100.00
14204;BME280;7185;51.854;6.622;2022-10-16T01:07:32;100777.84;;;14.02;100.00
14204;BME280;7185;51.854;6.622;2022-10-16T01:10:17;100769.94;;;14.02;100.00
14204;BME280;7185;51.854;6.622;2022-10-16T01:12:57;100778.09;;;13.93;100.00
14204;BME280;7185;51.854;6.622;2022-10-16T01:15:33;100779.75;;;13.97;100.00
14204;BME280;7185;51.854;6.622;2022-10-16T01:18:08;100771.19;;;13.89;100.00
14204;BME280;7185;51.854;6.622;2022-10-16T01:20:47;100769.47;;;13.88;100.00
14204;BME280;7185;51.854;6.622;2022-10-16T01:23:29;100766.88;;;13.86;100.00
14204;BME280;7185;51.854;6.622;2022-10-16T01:26:30;100757.97;;;13.91;100.00
14204;BME280;7185;51.854;6.622;2022-10-16T01:29:09;100759.69;;;13.92;100.00
14204;BME280;7185;51.854;6.622;2022-10-16T01:31:48;100766.75;;;13.91;100.00
14204;BME280;7185;51.854;6.622;2022-10-16T01:34:22;100764.00;;;13.94;100.00
14204;BME280;7185;51.854;6.622;2022-10-16T01:36:59;100766.88;;;13.86;100.00
14204;BME280;7185;51.854;6.622;2022-10-16T01:39:34;100761.50;;;13.90;100.00
14204;BME280;7185;51.854;6.622;2022-10-16T01:42:11;100759.00;;;13.85;100.00
14204;BME280;7185;51.854;6.622;2022-10-16T01:44:46;100756.28;;;13.88;100.00
14204;BME280;7185;51.854;6.622;2022-10-16T01:47:22;100766.00;;;13.86;100.00
14204;BME280;7185;51.854;6.622;2022-10-16T01:49:56;100764.28;;;13.85;100.00
14204;BME280;7185;51.854;6.622;2022-10-16T01:52:29;100765.22;;;13.84;100.00
14204;BME280;7185;51.854;6.622;2022-10-16T01:55:04;100768.63;;;13.88;100.00
14204;BME280;7185;51.854;6.622;2022-10-16T01:57:40;100762.69;;;13.79;100.00
14204;BME280;7185;51.854;6.622;2022-10-16T02:00:16;100771.47;;;13.80;100.00
14204;BME280;7185;51.854;6.622;2022-10-16T02:02:51;100771.28;;;13.86;100.00
14204;BME280;7185;51.854;6.622;2022-10-16T02:05:28;100771.38;;;13.83;100.00
14204;BME280;7185;51.854;6.622;2022-10-16T02:08:02;100774.06;;;13.81;100.00
14204;BME280;7185;51.854;6.622;2022-10-16T02:10:35;100775.00;;;13.79;100.00
14204;BME280;7185;51.854;6.622;2022-10-16T02:13:09;100773.38;;;13.75;100.00
14204;BME280;7185;51.854;6.622;2022-10-16T02:15:43;100772.53;;;13.74;100.00
14204;BME280;7185;51.854;6.622;2022-10-16T02:18:15;100767.50;;;13.65;100.00
14204;BME280;7185;51.854;6.622;2022-10-16T02:20:51;100768.94;;;13.75;100.00
14204;BME280;7185;51.854;6.622;2022-10-16T02:23:29;100775.94;;;13.78;100.00
14204;BME280;7185;51.854;6.622;2022-10-16T02:26:07;100790.00;;;13.77;100.00
14204;BME280;7185;51.854;6.622;2022-10-16T02:28:42;100791.75;;;13.76;100.00
14204;BME280;7185;51.854;6.622;2022-10-16T02:31:22;100787.56;;;13.70;100.00
14204;BME280;7185;51.854;6.622;2022-10-16T02:33:54;100775.00;;;13.79;100.00
14204;BME280;7185;51.854;6.622;2022-10-16T02:36:29;100781.28;;;13.75;100.00
14204;BME280;7185;51.854;6.622;2022-10-16T02:39:02;100783.84;;;13.78;100.00
14204;BME280;7185;51.854;6.622;2022-10-16T02:41:35;100787.44;;;13.74;100.00
14204;BME280;7185;51.854;6.622;2022-10-16T02:44:06;100793.44;;;13.80;100.00
14204;BME280;7185;51.854;6.622;2022-10-16T02:46:39;100783.38;;;13.93;100.00
14204;BME280;7185;51.854;6.622;2022-10-16T02:49:11;100784.38;;;13.89;100.00
14204;BME280;7185;51.854;6.622;2022-10-16T02:51:43;100786.84;;;13.95;100.00
14204;BME280;7185;51.854;6.622;2022-10-16T02:54:14;100788.63;;;13.93;100.00
14204;BME280;7185;51.854;6.622;2022-10-16T02:56:46;100778.09;;;13.93;100.00
14204;BME280;7185;51.854;6.622;2022-10-16T02:59:17;100778.47;;;13.81;100.00
14204;BME280;7185;51.854;6.622;2022-10-16T03:01:50;100783.66;;;13.84;100.00
14204;BME280;7185;51.854;6.622;2022-10-16T03:04:22;100779.16;;;13.88;100.00
14204;BME280;7185;51.854;6.622;2022-10-16T03:06:53;100778.09;;;13.93;100.00
14204;BME280;7185;51.854;6.622;2022-10-16T03:09:25;100784.19;;;13.95;100.00
14204;BME280;7185;51.854;6.622;2022-10-16T03:11:57;100785.81;;;14.01;100.00
14204;BME280;7185;51.854;6.622;2022-10-16T03:14:28;100791.00;;;14.02;100.00
14204;BME280;7185;51.854;6.622;2022-10-16T03:17:01;100788.38;;;14.02;100.00
14204;BME280;7185;51.854;6.622;2022-10-16T03:19:33;100774.38;;;14.00;100.00
14204;BME280;7185;51.854;6.622;2022-10-16T03:22:05;100772.56;;;14.02;100.00
14204;BME280;7185;51.854;6.622;2022-10-16T03:24:36;100784.91;;;14.00;100.00
14204;BME280;7185;51.854;6.622;2022-10-16T03:27:08;100770.94;;;13.98;100.00
14204;BME280;7185;51.854;6.622;2022-10-16T03:29:40;100772.63;;;13.99;100.00
14204;BME280;7185;51.854;6.622;2022-10-16T03:32:13;100779.75;;;13.97;100.00
14204;BME280;7185;51.854;6.622;2022-10-16T03:34:45;100769.22;;;13.97;100.00
14204;BME280;7185;51.854;6.622;2022-10-16T03:37:16;100778.22;;;13.90;100.00
14204;BME280;7185;51.854;6.622;2022-10-16T03:39:48;100774.38;;;14.00;100.00
14204;BME280;7185;51.854;6.622;2022-10-16T03:42:20;100774.38;;;14.00;100.00
14204;BME280;7185;51.854;6.622;2022-10-16T03:44:51;100786.47;;;14.08;100.00
14204;BME280;7185;51.854;6.622;2022-10-16T03:47:24;100776.03;;;14.05;100.00
14204;BME280;7185;51.854;6.622;2022-10-16T03:49:56;100797.00;;;14.08;100.00
14204;BME280;7185;51.854;6.622;2022-10-16T03:52:27;100796.38;;;13.99;100.00
14204;BME280;7185;51.854;6.622;2022-10-16T03:54:59;100800.47;;;14.10;100.00
14204;BME280;7185;51.854;6.622;2022-10-16T03:57:31;100801.19;;;14.15;100.00
14204;BME280;7185;51.854;6.622;2022-10-16T04:00:03;100808.50;;;14.05;100.00
14204;BME280;7185;51.854;6.622;2022-10-16T04:02:36;100793.72;;;13.99;100.00
14204;BME280;7185;51.854;6.622;2022-10-16T04:05:08;100802.38;;;14.05;100.00
14204;BME280;7185;51.854;6.622;2022-10-16T04:07:40;100800.56;;;14.07;100.00
14204;BME280;7185;51.854;6.622;2022-10-16T04:10:12;100798.75;;;14.09;100.00
14204;BME280;7185;51.854;6.622;2022-10-16T04:12:43;100800.72;;;14.00;100.00
14204;BME280;7185;51.854;6.622;2022-10-16T04:15:15;100808.47;;;14.07;100.00
14204;BME280;7185;51.854;6.622;2022-10-16T04:17:48;100809.28;;;14.09;100.00
14204;BME280;7185;51.854;6.622;2022-10-16T04:20:21;100822.53;;;14.07;100.00
14204;BME280;7185;51.854;6.622;2022-10-16T04:22:53;100827.03;;;14.03;100.00
14204;BME280;7185;51.854;6.622;2022-10-16T04:25:24;100833.91;;;14.08;100.00
14204;BME280;7185;51.854;6.622;2022-10-16T04:27:56;100836.69;;;14.03;100.00
14204;BME280;7185;51.854;6.622;2022-10-16T04:30:29;100838.47;;;14.02;100.00
14204;BME280;7185;51.854;6.622;2022-10-16T04:33:02;100835.75;;;14.06;100.00
14204;BME280;7185;51.854;6.622;2022-10-16T04:35:33;100828.56;;;14.11;100.00
14204;BME280;7185;51.854;6.622;2022-10-16T04:38:05;100839.00;;;14.14;100.00
14204;BME280;7185;51.854;6.622;2022-10-16T04:40:36;100844.59;;;14.03;100.00
14204;BME280;7185;51.854;6.622;2022-10-16T04:43:08;100847.09;;;14.09;100.00
14204;BME280;7185;51.854;6.622;2022-10-16T04:45:40;100847.16;;;14.06;100.00
14204;BME280;7185;51.854;6.622;2022-10-16T04:48:13;100849.72;;;14.09;100.00
14204;BME280;7185;51.854;6.622;2022-10-16T04:50:45;100848.06;;;14.05;100.00
14204;BME280;7185;51.854;6.622;2022-10-16T04:53:17;100858.56;;;14.07;100.00
14204;BME280;7185;51.854;6.622;2022-10-16T04:55:49;100855.00;;;14.08;100.00
14204;BME280;7185;51.854;6.622;2022-10-16T04:58:20;100862.78;;;14.12;100.00
14204;BME280;7185;51.854;6.622;2022-10-16T05:00:53;100865.47;;;14.11;100.00
14204;BME280;7185;51.854;6.622;2022-10-16T05:03:26;100864.59;;;14.10;100.00
14204;BME280;7185;51.854;6.622;2022-10-16T05:05:57;100866.47;;;14.07;100.00
14204;BME280;7185;51.854;6.622;2022-10-16T05:08:29;100866.63;;;14.00;100.00
14204;BME280;7185;51.854;6.622;2022-10-16T05:11:01;100865.72;;;14.01;100.00
14204;BME280;7185;51.854;6.622;2022-10-16T05:13:32;100878.06;;;14.01;100.00
14204;BME280;7185;51.854;6.622;2022-10-16T05:16:05;100885.22;;;13.96;100.00
14204;BME280;7185;51.854;6.622;2022-10-16T05:18:38;100887.84;;;13.96;100.00
14204;BME280;7185;51.854;6.622;2022-10-16T05:21:09;100890.66;;;13.91;100.00
14204;BME280;7185;51.854;6.622;2022-10-16T05:23:41;100888.91;;;13.90;100.00
14204;BME280;7185;51.854;6.622;2022-10-16T05:26:12;100895.97;;;13.88;100.00
14204;BME280;7185;51.854;6.622;2022-10-16T05:28:44;100896.06;;;13.85;100.00
14204;BME280;7185;51.854;6.622;2022-10-16T05:31:16;100902.09;;;13.89;100.00
14204;BME280;7185;51.854;6.622;2022-10-16T05:33:49;100896.06;;;13.85;100.00
14204;BME280;7185;51.854;6.622;2022-10-16T05:36:21;100903.06;;;13.86;100.00
14204;BME280;7185;51.854;6.622;2022-10-16T05:38:53;100898.78;;;13.82;100.00
14204;BME280;7185;51.854;6.622;2022-10-16T05:41:24;100902.44;;;13.78;100.00
14204;BME280;7185;51.854;6.622;2022-10-16T05:43:56;100905.97;;;13.75;100.00
14204;BME280;7185;51.854;6.622;2022-10-16T05:46:28;100907.66;;;13.79;100.00
14204;BME280;7185;51.854;6.622;2022-10-16T05:49:01;100897.28;;;13.73;100.00
14204;BME280;7185;51.854;6.622;2022-10-16T05:51:32;100899.91;;;13.73;100.00
14204;BME280;7185;51.854;6.622;2022-10-16T05:54:04;100911.25;;;13.75;100.00
14204;BME280;7185;51.854;6.622;2022-10-16T05:56:35;100925.25;;;13.77;100.00
14204;BME280;7185;51.854;6.622;2022-10-16T05:59:07;100923.69;;;13.70;100.00
14204;BME280;7185;51.854;6.622;2022-10-16T06:01:39;100921.88;;;13.72;100.00
14204;BME280;7185;51.854;6.622;2022-10-16T06:04:12;100926.22;;;13.75;100.00
14204;BME280;7185;51.854;6.622;2022-10-16T06:06:43;100932.38;;;13.74;100.00
14204;BME280;7185;51.854;6.622;2022-10-16T06:09:15;100935.75;;;13.79;100.00
14204;BME280;7185;51.854;6.622;2022-10-16T06:11:46;100940.06;;;13.83;100.00
14204;BME280;7185;51.854;6.622;2022-10-16T06:14:18;100939.44;;;13.73;100.00
14204;BME280;7185;51.854;6.622;2022-10-16T06:16:49;100950.66;;;13.80;100.00
14204;BME280;7185;51.854;6.622;2022-10-16T06:19:22;100957.84;;;13.75;100.00
14204;BME280;7185;51.854;6.622;2022-10-16T06:21:54;100965.53;;;13.82;100.00
14204;BME280;7185;51.854;6.622;2022-10-16T06:24:28;100979.78;;;13.75;100.00
14204;BME280;7185;51.854;6.622;2022-10-16T06:26:59;100972.97;;;13.66;100.00
14204;BME280;7185;51.854;6.622;2022-10-16T06:29:31;100984.34;;;13.68;100.00
14204;BME280;7185;51.854;6.622;2022-10-16T06:32:03;100990.41;;;13.72;100.00
14204;BME280;7185;51.854;6.622;2022-10-16T06:34:36;100989.41;;;13.78;100.00
14204;BME280;7185;51.854;6.622;2022-10-16T06:37:07;100996.50;;;13.74;100.00
14204;BME280;7185;51.854;6.622;2022-10-16T06:39:39;101001.72;;;13.76;100.00
14204;BME280;7185;51.854;6.622;2022-10-16T06:42:10;101003.47;;;13.77;100.00
14204;BME280;7185;51.854;6.622;2022-10-16T06:44:42;101008.47;;;13.86;100.00
14204;BME280;7185;51.854;6.622;2022-10-16T06:47:13;101020.59;;;13.93;100.00
14204;BME280;7185;51.854;6.622;2022-10-16T06:49:46;101020.03;;;14.16;100.00
14204;BME280;7185;51.854;6.622;2022-10-16T06:52:18;101022.22;;;14.32;100.00
14204;BME280;7185;51.854;6.622;2022-10-16T06:54:50;101026.41;;;14.41;100.00
14204;BME280;7185;51.854;6.622;2022-10-16T06:57:21;101028.94;;;14.44;100.00
14204;BME280;7185;51.854;6.622;2022-10-16T06:59:53;101038.06;;;14.32;100.00
14204;BME280;7185;51.854;6.622;2022-10-16T07:02:33;101040.16;;;14.52;100.00
14204;BME280;7185;51.854;6.622;2022-10-16T07:05:07;101042.34;;;15.01;100.00
14204;BME280;7185;51.854;6.622;2022-10-16T07:07:38;101043.41;;;15.23;100.00
14204;BME280;7185;51.854;6.622;2022-10-16T07:10:10;101058.00;;;15.64;100.00
14204;BME280;7185;51.854;6.622;2022-10-16T07:12:42;101051.25;;;16.10;100.00
14204;BME280;7185;51.854;6.622;2022-10-16T07:15:15;101063.69;;;16.33;100.00
14204;BME280;7185;51.854;6.622;2022-10-16T07:17:47;101060.22;;;16.56;100.00
14204;BME280;7185;51.854;6.622;2022-10-16T07:20:20;101063.25;;;17.18;100.00
14204;BME280;7185;51.854;6.622;2022-10-16T07:22:52;101068.84;;;17.57;100.00
14204;BME280;7185;51.854;6.622;2022-10-16T07:25:23;101080.03;;;17.63;100.00
14204;BME280;7185;51.854;6.622;2022-10-16T07:27:55;101082.53;;;17.68;100.00
14204;BME280;7185;51.854;6.622;2022-10-16T07:30:27;101078.63;;;17.77;100.00
14204;BME280;7185;51.854;6.622;2022-10-16T07:32:58;101085.19;;;18.33;100.00
14204;BME280;7185;51.854;6.622;2022-10-16T07:35:31;101090.50;;;18.33;100.00
14204;BME280;7185;51.854;6.622;2022-10-16T07:38:03;101083.41;;;18.73;100.00
14204;BME280;7185;51.854;6.622;2022-10-16T07:40:34;101084.88;;;18.80;100.00
14204;BME280;7185;51.854;6.622;2022-10-16T07:43:06;101088.44;;;19.00;100.00
14204;BME280;7185;51.854;6.622;2022-10-16T07:45:40;101094.78;;;19.17;100.00
14204;BME280;7185;51.854;6.622;2022-10-16T07:48:17;101091.06;;;19.77;100.00
14204;BME280;7185;51.854;6.622;2022-10-16T07:50:50;101114.13;;;19.95;100.00
14204;BME280;7185;51.854;6.622;2022-10-16T07:53:22;101111.06;;;19.66;100.00
14204;BME280;7185;51.854;6.622;2022-10-16T07:55:57;101116.25;;;20.23;100.00
14204;BME280;7185;51.854;6.622;2022-10-16T07:58:30;101123.31;;;20.60;100.00
14204;BME280;7185;51.854;6.622;2022-10-16T08:01:04;101116.72;;;20.67;100.00
14204;BME280;7185;51.854;6.622;2022-10-16T08:03:36;101127.00;;;20.04;100.00
14204;BME280;7185;51.854;6.622;2022-10-16T08:06:34;101123.81;;;21.01;100.00
14204;BME280;7185;51.854;6.622;2022-10-16T08:13:19;101137.34;;;20.46;100.00
14204;BME280;7185;51.854;6.622;2022-10-16T08:16:32;101142.19;;;20.55;100.00
14204;BME280;7185;51.854;6.622;2022-10-16T08:32:19;101150.66;;;21.80;68.34
14204;BME280;7185;51.854;6.622;2022-10-16T08:34:51;101149.31;;;21.23;70.42
14204;BME280;7185;51.854;6.622;2022-10-16T08:37:22;101167.66;;;21.45;69.81
14204;BME280;7185;51.854;6.622;2022-10-16T08:39:54;101169.88;;;21.21;69.27
14204;BME280;7185;51.854;6.622;2022-10-16T08:42:36;101167.06;;;21.56;68.71
14204;BME280;7185;51.854;6.622;2022-10-16T08:45:34;101174.50;;;21.83;69.28
14204;BME280;7185;51.854;6.622;2022-10-16T08:48:17;101177.88;;;21.21;69.79
14204;BME280;7185;51.854;6.622;2022-10-16T08:50:52;101178.50;;;20.93;70.20
14204;BME280;7185;51.854;6.622;2022-10-16T08:53:27;101187.72;;;20.68;71.71
14204;BME280;7185;51.854;6.622;2022-10-16T08:55:59;101187.16;;;20.26;71.88
14204;BME280;7185;51.854;6.622;2022-10-16T08:58:31;101195.00;;;20.99;71.60
14204;BME280;7185;51.854;6.622;2022-10-16T09:01:04;101195.09;;;21.31;70.06
14204;BME280;7185;51.854;6.622;2022-10-16T09:03:55;101192.09;;;21.38;71.24
14204;BME280;7185;51.854;6.622;2022-10-16T09:06:39;101192.28;;;20.83;69.67
14204;BME280;7185;51.854;6.622;2022-10-16T09:09:29;101191.44;;;21.16;70.79
14204;BME280;7185;51.854;6.622;2022-10-16T09:12:12;101190.63;;;21.48;68.18
14204;BME280;7185;51.854;6.622;2022-10-16T09:14:55;101193.13;;;22.31;65.77
14204;BME280;7185;51.854;6.622;2022-10-16T09:17:39;101195.84;;;21.83;67.00
14204;BME280;7185;51.854;6.622;2022-10-16T09:20:28;101196.47;;;22.35;65.46
14204;BME280;7185;51.854;6.622;2022-10-16T09:23:13;101208.38;;;21.49;66.78
14204;BME280;7185;51.854;6.622;2022-10-16T09:25:47;101209.88;;;21.21;67.65
14204;BME280;7185;51.854;6.622;2022-10-16T09:28:20;101214.88;;;21.27;67.39
14204;BME280;7185;51.854;6.622;2022-10-16T09:30:51;101213.25;;;21.58;67.05
14204;BME280;7185;51.854;6.622;2022-10-16T09:33:27;101212.97;;;21.29;69.67
14204;BME280;7185;51.854;6.622;2022-10-16T09:36:02;101220.69;;;21.18;68.02
14204;BME280;7185;51.854;6.622;2022-10-16T09:38:36;101221.72;;;21.49;67.04
14204;BME280;7185;51.854;6.622;2022-10-16T09:41:15;101218.25;;;21.80;66.92
14204;BME280;7185;51.854;6.622;2022-10-16T09:43:52;101231.50;;;22.14;64.98
14204;BME280;7185;51.854;6.622;2022-10-16T09:46:26;101223.81;;;22.70;65.51
14204;BME280;7185;51.854;6.622;2022-10-16T09:49:00;101225.97;;;22.33;63.00
14204;BME280;7185;51.854;6.622;2022-10-16T09:51:35;101223.56;;;22.89;61.40
14204;BME280;7185;51.854;6.622;2022-10-16T09:54:14;101231.34;;;23.08;61.13
14204;BME280;7185;51.854;6.622;2022-10-16T09:56:46;101228.75;;;22.92;62.27
14204;BME280;7185;51.854;6.622;2022-10-16T09:59:22;101229.50;;;23.39;60.20
14204;BME280;7185;51.854;6.622;2022-10-16T10:01:56;101231.19;;;23.55;61.30
14204;BME280;7185;51.854;6.622;2022-10-16T10:04:39;101231.63;;;23.91;59.96
14204;BME280;7185;51.854;6.622;2022-10-16T10:07:20;101237.84;;;24.33;56.97
14204;BME280;7185;51.854;6.622;2022-10-16T10:09:53;101234.38;;;25.11;55.86
14204;BME280;7185;51.854;6.622;2022-10-16T10:12:27;101242.50;;;25.23;53.28
14204;BME280;7185;51.854;6.622;2022-10-16T10:15:04;101244.38;;;25.85;50.87
14204;BME280;7185;51.854;6.622;2022-10-16T10:17:46;101238.72;;;25.77;50.73
14204;BME280;7185;51.854;6.622;2022-10-16T10:20:24;101240.16;;;26.31;48.74
14204;BME280;7185;51.854;6.622;2022-10-16T10:22:57;101237.72;;;27.11;50.22
14204;BME280;7185;51.854;6.622;2022-10-16T10:25:42;101248.50;;;27.33;50.27
14204;BME280;7185;51.854;6.622;2022-10-16T10:28:24;101248.31;;;27.59;48.22
14204;BME280;7185;51.854;6.622;2022-10-16T10:31:03;101250.00;;;27.60;48.28
14204;BME280;7185;51.854;6.622;2022-10-16T10:33:42;101250.00;;;27.60;48.28
14204;BME280;7185;51.854;6.622;2022-10-16T10:36:25;101251.06;;;27.35;46.24
14204;BME280;7185;51.854;6.622;2022-10-16T10:39:02;101248.03;;;27.17;46.28
14204;BME280;7185;51.854;6.622;2022-10-16T10:42:02;101245.28;;;24.82;50.79
14204;BME280;7185;51.854;6.622;2022-10-16T10:44:52;101256.13;;;23.84;54.29
14204;BME280;7185;51.854;6.622;2022-10-16T10:47:31;101255.84;;;23.75;55.08
14204;BME280;7185;51.854;6.622;2022-10-16T10:50:14;101261.81;;;25.28;54.03
14204;BME280;7185;51.854;6.622;2022-10-16T10:52:56;101256.13;;;26.81;51.86
14204;BME280;7185;51.854;6.622;2022-10-16T10:55:39;101257.19;;;27.26;47.32
14204;BME280;7185;51.854;6.622;2022-10-16T11:01:24;101257.19;;;27.26;47.32
14204;BME280;7185;51.854;6.622;2022-10-16T11:04:08;101251.28;;;29.40;44.54
14204;BME280;7185;51.854;6.622;2022-10-16T11:06:46;101248.97;;;29.76;42.23
14204;BME280;7185;51.854;6.622;2022-10-16T11:09:20;101260.44;;;29.58;41.18
14204;BME280;7185;51.854;6.622;2022-10-16T11:11:59;101255.72;;;29.30;40.47
14204;BME280;7185;51.854;6.622;2022-10-16T11:14:36;101259.63;;;29.68;40.67
14204;BME280;7185;51.854;6.622;2022-10-16T11:17:13;101253.47;;;29.97;40.24
14204;BME280;7185;51.854;6.622;2022-10-16T11:19:48;101254.38;;;29.76;39.59
14204;BME280;7185;51.854;6.622;2022-10-16T11:22:26;101257.75;;;30.09;40.06
14204;BME280;7185;51.854;6.622;2022-10-16T11:25:06;101259.47;;;30.49;38.34
14204;BME280;7185;51.854;6.622;2022-10-16T11:27:49;101255.75;;;31.09;37.24
14204;BME280;7185;51.854;6.622;2022-10-16T11:30:25;101262.09;;;28.98;39.77
14204;BME280;7185;51.854;6.622;2022-10-16T11:33:05;101276.41;;;27.89;40.17
14204;BME280;7185;51.854;6.622;2022-10-16T11:35:46;101266.00;;;27.96;40.10
14204;BME280;7185;51.854;6.622;2022-10-16T11:38:25;101275.31;;;28.03;40.30
14204;BME280;7185;51.854;6.622;2022-10-16T11:41:02;101268.56;;;27.97;39.31
14204;BME280;7185;51.854;6.622;2022-10-16T11:43:39;101270.28;;;26.48;43.59
14204;BME280;7185;51.854;6.622;2022-10-16T11:46:15;101259.50;;;27.08;42.07
14204;BME280;7185;51.854;6.622;2022-10-16T11:48:52;101263.00;;;26.61;42.60
14204;BME280;7185;51.854;6.622;2022-10-16T11:51:32;101267.41;;;25.25;45.22
14204;BME280;7185;51.854;6.622;2022-10-16T11:54:10;101262.59;;;24.09;48.63
14204;BME280;7185;51.854;6.622;2022-10-16T11:56:46;101272.09;;;23.28;51.00
14204;BME280;7185;51.854;6.622;2022-10-16T11:59:27;101269.81;;;23.36;50.64
14204;BME280;7185;51.854;6.622;2022-10-16T12:02:22;101274.78;;;22.98;52.33
14204;BME280;7185;51.854;6.622;2022-10-16T12:05:06;101287.88;;;23.02;54.42
14204;BME280;7185;51.854;6.622;2022-10-16T12:07:46;101284.75;;;24.80;50.67
14204;BME280;7185;51.854;6.622;2022-10-16T12:10:21;101281.41;;;25.93;45.46
14204;BME280;7185;51.854;6.622;2022-10-16T12:12:54;101289.28;;;25.83;45.11
14204;BME280;7185;51.854;6.622;2022-10-16T12:15:29;101290.91;;;25.86;45.77
14204;BME280;7185;51.854;6.622;2022-10-16T12:18:02;101284.28;;;27.58;42.17
14204;BME280;7185;51.854;6.622;2022-10-16T12:20:34;101285.41;;;28.99;38.81
14204;BME280;7185;51.854;6.622;2022-10-16T12:23:20;101295.03;;;29.74;38.53
14204;BME280;7185;51.854;6.622;2022-10-16T12:25:54;101288.38;;;30.29;36.39
14204;BME280;7185;51.854;6.622;2022-10-16T12:28:28;101285.66;;;30.98;36.54
14204;BME280;7185;51.854;6.622;2022-10-16T12:31:04;101293.69;;;30.70;35.12
14204;BME280;7185;51.854;6.622;2022-10-16T12:33:37;101285.00;;;31.43;33.63
14204;BME280;7185;51.854;6.622;2022-10-16T12:36:14;101283.59;;;31.39;35.21
14204;BME280;7185;51.854;6.622;2022-10-16T12:38:48;101277.69;;;31.91;33.06
14204;BME280;7185;51.854;6.622;2022-10-16T12:41:25;101279.41;;;33.27;31.44
14204;BME280;7185;51.854;6.622;2022-10-16T12:43:57;101279.41;;;33.27;31.44
14204;BME280;7185;51.854;6.622;2022-10-16T12:46:38;101290.38;;;32.55;30.97
14204;BME280;7185;51.854;6.622;2022-10-16T12:49:32;101292.94;;;31.55;32.99
14204;BME280;7185;51.854;6.622;2022-10-16T12:52:04;101297.34;;;31.56;31.25
14204;BME280;7185;51.854;6.622;2022-10-16T12:54:37;101301.34;;;30.45;33.42
14204;BME280;7185;51.854;6.622;2022-10-16T12:57:30;101293.66;;;30.31;32.72
14204;BME280;7185;51.854;6.622;2022-10-16T13:00:12;101299.63;;;30.25;33.69
14204;BME280;7185;51.854;6.622;2022-10-16T13:06:25;101293.97;;;30.77;32.31
14204;BME280;7185;51.854;6.622;2022-10-16T13:09:28;101305.63;;;31.07;31.98
14204;BME280;7185;51.854;6.622;2022-10-16T13:12:16;101308.31;;;30.38;33.97
14204;BME280;7185;51.854;6.622;2022-10-16T13:15:16;101297.41;;;29.58;34.51
14204;BME280;7185;51.854;6.622;2022-10-16T13:17:57;101292.06;;;29.78;34.49
14204;BME280;7185;51.854;6.622;2022-10-16T13:20:35;101298.50;;;30.37;34.19
14204;BME280;7185;51.854;6.622;2022-10-16T13:23:16;101296.19;;;31.21;33.00
14204;BME280;7185;51.854;6.622;2022-10-16T13:26:05;101302.91;;;31.64;31.67
14204;BME280;7185;51.854;6.622;2022-10-16T13:28:40;101303.31;;;31.69;30.96
14204;BME280;7185;51.854;6.622;2022-10-16T13:31:15;101309.88;;;30.31;33.63
14204;BME280;7185;51.854;6.622;2022-10-16T13:33:50;101302.06;;;29.87;34.77
14204;BME280;7185;51.854;6.622;2022-10-16T13:36:26;101304.28;;;30.03;34.21
14204;BME280;7185;51.854;6.622;2022-10-16T13:39:11;101311.69;;;29.70;35.40
14204;BME280;7185;51.854;6.622;2022-10-16T13:41:44;101302.25;;;30.65;33.32
14204;BME280;7185;51.854;6.622;2022-10-16T13:44:19;101292.34;;;31.04;32.53
14204;BME280;7185;51.854;6.622;2022-10-16T13:46:58;101293.66;;;30.99;32.76
14204;BME280;7185;51.854;6.622;2022-10-16T13:49:30;101286.97;;;31.51;32.53
14204;BME280;7185;51.854;6.622;2022-10-16T13:52:01;101300.66;;;31.50;32.11
14204;BME280;7185;51.854;6.622;2022-10-16T13:54:34;101297.91;;;30.33;33.72
14204;BME280;7185;51.854;6.622;2022-10-16T13:57:06;101307.34;;;30.39;33.19
14204;BME280;7185;51.854;6.622;2022-10-16T13:59:38;101295.13;;;31.41;31.65
14204;BME280;7185;51.854;6.622;2022-10-16T14:02:18;101289.84;;;31.50;31.02